sensor_id;sensor_type;location;lat;lon;timestamp;pressure;altitude;pressure_sealevel;temperature;humidity
23118;BME280;11728;50.624;6.014;2023-06-01T00:02:18;98780.28;;;17.08;59.90
23118;BME280;11728;50.624;6.014;2023-06-01T00:07:39;98779.88;;;16.97;60.10
23118;BME280;11728;50.624;6.014;2023-06-01T00:13:00;98772.47;;;16.83;60.57
23118;BME280;11728;50.624;6.014;2023-06-01T00:18:20;98762.50;;;16.65;61.21
23118;BME280;11728;50.624;6.014;2023-06-01T00:23:41;98764.19;;;16.44;62.09
23118;BME280;11728;50.624;6.014;2023-06-01T00:29:03;98770.06;;;16.31;62.77
23118;BME280;11728;50.624;6.014;2023-06-01T00:34:23;98772.13;;;16.23;63.03
23118;BME280;11728;50.624;6.014;2023-06-01T00:39:44;98771.53;;;16.15;63.40
23118;BME280;11728;50.624;6.014;2023-06-01T00:45:05;98768.38;;;16.04;64.08
23118;BME280;11728;50.624;6.014;2023-06-01T00:50:26;98786.44;;;15.96;64.47
23118;BME280;11728;50.624;6.014;2023-06-01T00:55:47;98770.81;;;15.87;64.63
23118;BME280;11728;50.624;6.014;2023-06-01T01:01:08;98769.28;;;15.80;65.17
23118;BME280;11728;50.624;6.014;2023-06-01T01:17:46;98797.09;;;15.47;66.54
23118;BME280;11728;50.624;6.014;2023-06-01T01:24:15;98782.41;;;15.36;67.39
23118;BME280;11728;50.624;6.014;2023-06-01T01:29:09;98787.06;;;15.30;67.29
23118;BME280;11728;50.624;6.014;2023-06-01T01:34:31;98788.13;;;15.23;67.74
23118;BME280;11728;50.624;6.014;2023-06-01T01:39:52;98785.69;;;15.17;67.80
23118;BME280;11728;50.624;6.014;2023-06-01T01:45:13;98794.78;;;15.10;68.31
23118;BME280;11728;50.624;6.014;2023-06-01T01:50:38;98787.94;;;15.03;68.55
23118;BME280;11728;50.624;6.014;2023-06-01T01:56:03;98785.47;;;14.97;68.50
23118;BME280;11728;50.624;6.014;2023-06-01T02:01:24;98791.91;;;14.90;68.68
23118;BME280;11728;50.624;6.014;2023-06-01T02:06:45;98785.88;;;14.85;68.77
23118;BME280;11728;50.624;6.014;2023-06-01T02:12:06;98775.53;;;14.76;68.93
23118;BME280;11728;50.624;6.014;2023-06-01T02:17:27;98773.06;;;14.70;69.09
23118;BME280;11728;50.624;6.014;2023-06-01T02:22:48;98766.84;;;14.69;69.67
23118;BME280;11728;50.624;6.014;2023-06-01T02:28:09;98771.25;;;14.70;70.21
23118;BME280;11728;50.624;6.014;2023-06-01T02:33:31;98766.97;;;14.66;70.27
23118;BME280;11728;50.624;6.014;2023-06-01T02:38:52;98775.28;;;14.56;70.32
23118;BME280;11728;50.624;6.014;2023-06-01T02:44:12;98780.94;;;14.44;70.63
23118;BME280;11728;50.624;6.014;2023-06-01T02:49:33;98771.38;;;14.39;70.73
23118;BME280;11728;50.624;6.014;2023-06-01T02:54:54;98777.75;;;14.33;70.57
23118;BME280;11728;50.624;6.014;2023-06-01T03:00:15;98772.75;;;14.23;70.85
23118;BME280;11728;50.624;6.014;2023-06-01T03:05:38;98782.88;;;14.10;71.42
23118;BME280;11728;50.624;6.014;2023-06-01T03:10:59;98782.19;;;14.02;71.64
23118;BME280;11728;50.624;6.014;2023-06-01T03:16:19;98781.56;;;13.93;72.05
23118;BME280;11728;50.624;6.014;2023-06-01T03:21:40;98778.28;;;13.83;72.49
23118;BME280;11728;50.624;6.014;2023-06-01T03:27:02;98792.56;;;13.80;72.59
23118;BME280;11728;50.624;6.014;2023-06-01T03:32:23;98782.94;;;13.76;72.77
23118;BME280;11728;50.624;6.014;2023-06-01T03:37:45;98793.53;;;13.76;72.64
23118;BME280;11728;50.624;6.014;2023-06-01T03:43:06;98787.50;;;13.71;72.67
23118;BME280;11728;50.624;6.014;2023-06-01T03:48:26;98784.84;;;13.71;72.58
23118;BME280;11728;50.624;6.014;2023-06-01T03:53:47;98790.16;;;13.71;72.73
23118;BME280;11728;50.624;6.014;2023-06-01T03:59:08;98793.66;;;13.73;72.58
23118;BME280;11728;50.624;6.014;2023-06-01T04:04:30;98797.16;;;13.75;72.51
23118;BME280;11728;50.624;6.014;2023-06-01T04:09:52;98788.16;;;13.79;72.72
23118;BME280;11728;50.624;6.014;2023-06-01T04:15:14;98787.22;;;13.81;72.92
23118;BME280;11728;50.624;6.014;2023-06-01T04:20:35;98785.31;;;13.86;72.86
23118;BME280;11728;50.624;6.014;2023-06-01T04:25:56;98786.84;;;13.94;73.00
23118;BME280;11728;50.624;6.014;2023-06-01T04:31:20;98793.59;;;14.06;72.76
23118;BME280;11728;50.624;6.014;2023-06-01T04:36:41;98788.06;;;14.15;73.08
23118;BME280;11728;50.624;6.014;2023-06-01T04:42:02;98799.16;;;14.29;73.18
23118;BME280;11728;50.624;6.014;2023-06-01T04:47:23;98779.13;;;14.46;73.30
23118;BME280;11728;50.624;6.014;2023-06-01T04:52:44;98785.41;;;14.71;73.62
23118;BME280;11728;50.624;6.014;2023-06-01T04:58:05;98790.06;;;14.92;74.14
23118;BME280;11728;50.624;6.014;2023-06-01T05:03:26;98782.25;;;15.13;74.37
23118;BME280;11728;50.624;6.014;2023-06-01T05:08:47;98781.41;;;15.38;74.36
23118;BME280;11728;50.624;6.014;2023-06-01T05:14:08;98777.06;;;15.62;74.33
23118;BME280;11728;50.624;6.014;2023-06-01T05:19:29;98782.66;;;15.79;74.59
23118;BME280;11728;50.624;6.014;2023-06-01T05:24:50;98792.91;;;15.89;74.79
23118;BME280;11728;50.624;6.014;2023-06-01T05:30:11;98790.47;;;16.08;74.77
23118;BME280;11728;50.624;6.014;2023-06-01T05:35:32;98788.41;;;16.40;74.13
23118;BME280;11728;50.624;6.014;2023-06-01T05:40:53;98787.81;;;16.55;73.50
23118;BME280;11728;50.624;6.014;2023-06-01T05:46:14;98788.44;;;16.61;73.14
23118;BME280;11728;50.624;6.014;2023-06-01T05:51:34;98798.84;;;16.67;72.78
23118;BME280;11728;50.624;6.014;2023-06-01T05:56:58;98800.63;;;16.90;72.53
23118;BME280;11728;50.624;6.014;2023-06-01T06:02:19;98802.06;;;16.98;71.99
23118;BME280;11728;50.624;6.014;2023-06-01T06:07:42;98800.97;;;17.03;71.51
23118;BME280;11728;50.624;6.014;2023-06-01T06:13:03;98797.41;;;17.24;71.14
23118;BME280;11728;50.624;6.014;2023-06-01T06:18:24;98799.25;;;17.22;70.54
23118;BME280;11728;50.624;6.014;2023-06-01T06:23:44;98801.38;;;17.14;70.59
23118;BME280;11728;50.624;6.014;2023-06-01T06:29:05;98793.75;;;17.27;70.43
23118;BME280;11728;50.624;6.014;2023-06-01T06:34:26;98799.31;;;17.44;69.97
23118;BME280;11728;50.624;6.014;2023-06-01T06:39:54;98803.53;;;17.49;69.63
23118;BME280;11728;50.624;6.014;2023-06-01T06:45:14;98800.94;;;17.68;69.00
23118;BME280;11728;50.624;6.014;2023-06-01T06:50:35;98802.22;;;17.79;68.88
23118;BME280;11728;50.624;6.014;2023-06-01T06:55:57;98802.47;;;18.13;68.04
23118;BME280;11728;50.624;6.014;2023-06-01T07:01:18;98803.00;;;18.41;67.18
23118;BME280;11728;50.624;6.014;2023-06-01T07:06:38;98811.63;;;18.65;66.16
23118;BME280;11728;50.624;6.014;2023-06-01T07:11:59;98805.78;;;18.94;65.24
23118;BME280;11728;50.624;6.014;2023-06-01T07:17:20;98812.50;;;19.21;64.52
23118;BME280;11728;50.624;6.014;2023-06-01T07:22:40;98811.72;;;19.37;63.68
23118;BME280;11728;50.624;6.014;2023-06-01T07:28:01;98818.91;;;19.54;63.26
23118;BME280;11728;50.624;6.014;2023-06-01T07:33:27;98822.47;;;19.71;61.98
23118;BME280;11728;50.624;6.014;2023-06-01T07:38:49;98816.91;;;19.93;61.47
23118;BME280;11728;50.624;6.014;2023-06-01T07:44:11;98820.75;;;20.38;59.73
23118;BME280;11728;50.624;6.014;2023-06-01T07:49:32;98815.47;;;20.69;58.61
23118;BME280;11728;50.624;6.014;2023-06-01T07:54:56;98824.50;;;21.15;58.18
23118;BME280;11728;50.624;6.014;2023-06-01T08:00:18;98810.50;;;22.00;56.21
23118;BME280;11728;50.624;6.014;2023-06-01T08:05:40;98814.06;;;22.00;54.81
23118;BME280;11728;50.624;6.014;2023-06-01T08:11:02;98804.75;;;21.76;54.69
23118;BME280;11728;50.624;6.014;2023-06-01T08:16:23;98805.94;;;22.73;53.73
23118;BME280;11728;50.624;6.014;2023-06-01T08:21:44;98804.69;;;23.06;51.63
23118;BME280;11728;50.624;6.014;2023-06-01T08:27:19;98797.03;;;23.26;51.00
23118;BME280;11728;50.624;6.014;2023-06-01T08:32:40;98789.59;;;24.21;49.76
23118;BME280;11728;50.624;6.014;2023-06-01T08:38:01;98800.75;;;25.52;48.00
23118;BME280;11728;50.624;6.014;2023-06-01T08:43:22;98794.56;;;25.86;45.45
23118;BME280;11728;50.624;6.014;2023-06-01T08:48:52;98801.19;;;25.82;45.17
23118;BME280;11728;50.624;6.014;2023-06-01T08:54:14;98793.47;;;26.23;44.23
23118;BME280;11728;50.624;6.014;2023-06-01T08:59:35;98793.97;;;26.73;43.40
23118;BME280;11728;50.624;6.014;2023-06-01T09:04:56;98788.41;;;27.40;41.90
23118;BME280;11728;50.624;6.014;2023-06-01T09:10:26;98784.59;;;27.96;41.00
23118;BME280;11728;50.624;6.014;2023-06-01T09:15:52;98787.69;;;28.22;40.32
23118;BME280;11728;50.624;6.014;2023-06-01T09:21:14;98792.47;;;28.50;39.71
23118;BME280;11728;50.624;6.014;2023-06-01T09:26:35;98794.56;;;29.08;38.84
23118;BME280;11728;50.624;6.014;2023-06-01T09:31:56;98793.72;;;29.47;38.13
23118;BME280;11728;50.624;6.014;2023-06-01T09:37:17;98784.28;;;29.51;37.29
23118;BME280;11728;50.624;6.014;2023-06-01T09:42:38;98781.59;;;29.69;36.55
23118;BME280;11728;50.624;6.014;2023-06-01T09:48:16;98782.09;;;29.93;35.96
23118;BME280;11728;50.624;6.014;2023-06-01T09:53:42;98783.50;;;30.35;35.78
23118;BME280;11728;50.624;6.014;2023-06-01T09:59:04;98785.94;;;30.66;35.75
23118;BME280;11728;50.624;6.014;2023-06-01T10:04:26;98774.06;;;31.04;35.29
23118;BME280;11728;50.624;6.014;2023-06-01T10:09:51;98773.00;;;31.50;33.97
23118;BME280;11728;50.624;6.014;2023-06-01T10:15:14;98775.91;;;31.93;33.11
23118;BME280;11728;50.624;6.014;2023-06-01T10:20:36;98770.13;;;31.96;32.47
23118;BME280;11728;50.624;6.014;2023-06-01T10:25:59;98764.72;;;31.87;32.83
23118;BME280;11728;50.624;6.014;2023-06-01T10:31:39;98767.78;;;32.01;32.30
23118;BME280;11728;50.624;6.014;2023-06-01T10:47:46;98754.97;;;32.79;31.30
23118;BME280;11728;50.624;6.014;2023-06-01T10:53:29;98756.06;;;33.11;29.45
23118;BME280;11728;50.624;6.014;2023-06-01T11:04:36;98731.59;;;33.51;28.70
23118;BME280;11728;50.624;6.014;2023-06-01T11:09:59;98733.72;;;33.65;28.15
23118;BME280;11728;50.624;6.014;2023-06-01T11:15:20;98734.03;;;33.62;27.86
23118;BME280;11728;50.624;6.014;2023-06-01T11:20:43;98737.16;;;33.83;26.82
23118;BME280;11728;50.624;6.014;2023-06-01T11:26:06;98724.38;;;34.39;26.76
23118;BME280;11728;50.624;6.014;2023-06-01T11:31:27;98727.63;;;34.50;26.74
23118;BME280;11728;50.624;6.014;2023-06-01T11:36:53;98723.88;;;34.67;26.70
23118;BME280;11728;50.624;6.014;2023-06-01T11:42:17;98721.63;;;34.71;25.94
23118;BME280;11728;50.624;6.014;2023-06-01T11:47:38;98711.63;;;34.94;25.80
23118;BME280;11728;50.624;6.014;2023-06-01T11:52:59;98697.59;;;35.35;25.78
23118;BME280;11728;50.624;6.014;2023-06-01T11:58:24;98700.22;;;35.59;25.70
23118;BME280;11728;50.624;6.014;2023-06-01T12:03:46;98697.91;;;35.70;24.68
23118;BME280;11728;50.624;6.014;2023-06-01T12:09:06;98689.75;;;35.54;24.57
23118;BME280;11728;50.624;6.014;2023-06-01T12:14:28;98692.59;;;35.69;23.89
23118;BME280;11728;50.624;6.014;2023-06-01T12:19:50;98690.84;;;35.76;24.20
23118;BME280;11728;50.624;6.014;2023-06-01T12:25:11;98694.31;;;36.00;23.98
23118;BME280;11728;50.624;6.014;2023-06-01T12:30:31;98686.06;;;36.22;23.66
23118;BME280;11728;50.624;6.014;2023-06-01T12:35:52;98680.59;;;36.14;23.54
23118;BME280;11728;50.624;6.014;2023-06-01T12:41:13;98682.75;;;36.27;22.96
23118;BME280;11728;50.624;6.014;2023-06-01T12:46:34;98672.84;;;36.32;22.93
23118;BME280;11728;50.624;6.014;2023-06-01T12:51:56;98668.50;;;36.23;22.71
23118;BME280;11728;50.624;6.014;2023-06-01T12:57:16;98671.41;;;36.22;22.31
23118;BME280;11728;50.624;6.014;2023-06-01T13:02:37;98670.44;;;36.37;21.71
23118;BME280;11728;50.624;6.014;2023-06-01T13:07:58;98666.91;;;36.07;22.43
23118;BME280;11728;50.624;6.014;2023-06-01T13:13:20;98670.00;;;35.51;22.91
23118;BME280;11728;50.624;6.014;2023-06-01T13:18:41;98670.00;;;34.43;24.32
23118;BME280;11728;50.624;6.014;2023-06-01T13:24:02;98678.44;;;33.36;25.46
23118;BME280;11728;50.624;6.014;2023-06-01T13:29:23;98670.47;;;32.08;26.99
23118;BME280;11728;50.624;6.014;2023-06-01T13:34:45;98667.91;;;31.27;27.86
23118;BME280;11728;50.624;6.014;2023-06-01T13:40:06;98657.56;;;30.95;28.01
23118;BME280;11728;50.624;6.014;2023-06-01T13:45:27;98658.47;;;30.59;28.08
23118;BME280;11728;50.624;6.014;2023-06-01T13:50:48;98651.31;;;30.39;28.72
23118;BME280;11728;50.624;6.014;2023-06-01T13:56:09;98647.75;;;30.29;28.65
23118;BME280;11728;50.624;6.014;2023-06-01T14:01:30;98644.63;;;30.24;28.63
23118;BME280;11728;50.624;6.014;2023-06-01T14:06:50;98643.06;;;30.22;28.68
23118;BME280;11728;50.624;6.014;2023-06-01T14:12:11;98640.50;;;30.01;28.46
23118;BME280;11728;50.624;6.014;2023-06-01T14:17:32;98639.06;;;29.88;29.40
23118;BME280;11728;50.624;6.014;2023-06-01T14:22:53;98631.19;;;29.75;28.39
23118;BME280;11728;50.624;6.014;2023-06-01T14:28:13;98632.50;;;29.71;28.56
23118;BME280;11728;50.624;6.014;2023-06-01T14:33:34;98626.19;;;29.62;28.79
23118;BME280;11728;50.624;6.014;2023-06-01T14:38:55;98619.75;;;29.44;29.14
23118;BME280;11728;50.624;6.014;2023-06-01T14:44:15;98622.88;;;29.30;29.04
23118;BME280;11728;50.624;6.014;2023-06-01T14:49:38;98615.25;;;29.24;29.77
23118;BME280;11728;50.624;6.014;2023-06-01T14:54:59;98611.94;;;29.11;29.66
23118;BME280;11728;50.624;6.014;2023-06-01T15:00:20;98596.19;;;29.14;30.24
23118;BME280;11728;50.624;6.014;2023-06-01T15:05:41;98597.75;;;28.98;30.51
23118;BME280;11728;50.624;6.014;2023-06-01T15:11:02;98600.16;;;28.91;29.50
23118;BME280;11728;50.624;6.014;2023-06-01T15:16:23;98599.41;;;28.80;30.47
23118;BME280;11728;50.624;6.014;2023-06-01T15:21:45;98599.94;;;28.65;29.87
23118;BME280;11728;50.624;6.014;2023-06-01T15:27:07;98586.41;;;28.44;29.21
23118;BME280;11728;50.624;6.014;2023-06-01T15:32:28;98593.50;;;28.26;29.31
23118;BME280;11728;50.624;6.014;2023-06-01T15:37:48;98595.34;;;28.05;29.05
23118;BME280;11728;50.624;6.014;2023-06-01T15:43:09;98592.66;;;27.85;29.96
23118;BME280;11728;50.624;6.014;2023-06-01T15:48:30;98588.22;;;27.64;29.63
23118;BME280;11728;50.624;6.014;2023-06-01T15:53:51;98586.81;;;27.49;30.99
23118;BME280;11728;50.624;6.014;2023-06-01T15:59:13;98578.72;;;27.38;30.32
23118;BME280;11728;50.624;6.014;2023-06-01T16:04:33;98574.72;;;27.22;31.42
23118;BME280;11728;50.624;6.014;2023-06-01T16:09:54;98570.94;;;27.13;31.41
23118;BME280;11728;50.624;6.014;2023-06-01T16:15:15;98561.84;;;27.03;31.70
23118;BME280;11728;50.624;6.014;2023-06-01T16:20:36;98560.38;;;26.99;32.03
23118;BME280;11728;50.624;6.014;2023-06-01T16:25:56;98553.06;;;26.79;32.03
23118;BME280;11728;50.624;6.014;2023-06-01T16:31:18;98551.84;;;26.72;32.79
23118;BME280;11728;50.624;6.014;2023-06-01T16:36:40;98546.22;;;26.53;32.91
23118;BME280;11728;50.624;6.014;2023-06-01T16:42:01;98548.91;;;26.32;32.76
23118;BME280;11728;50.624;6.014;2023-06-01T16:47:22;98535.41;;;26.21;33.25
23118;BME280;11728;50.624;6.014;2023-06-01T16:52:43;98538.00;;;26.00;33.30
23118;BME280;11728;50.624;6.014;2023-06-01T16:58:03;98535.78;;;25.83;32.66
23118;BME280;11728;50.624;6.014;2023-06-01T17:03:24;98523.78;;;25.64;33.14
23118;BME280;11728;50.624;6.014;2023-06-01T17:08:45;98525.75;;;25.51;33.54
23118;BME280;11728;50.624;6.014;2023-06-01T17:14:06;98518.47;;;25.41;34.60
23118;BME280;11728;50.624;6.014;2023-06-01T17:19:26;98519.31;;;25.30;35.00
23118;BME280;11728;50.624;6.014;2023-06-01T17:24:47;98520.03;;;25.21;34.33
23118;BME280;11728;50.624;6.014;2023-06-01T17:30:08;98522.22;;;25.16;34.49
23118;BME280;11728;50.624;6.014;2023-06-01T17:35:29;98522.19;;;24.82;34.57
23118;BME280;11728;50.624;6.014;2023-06-01T17:40:50;98514.53;;;24.53;35.01
23118;BME280;11728;50.624;6.014;2023-06-01T17:46:10;98522.03;;;24.37;36.11
23118;BME280;11728;50.624;6.014;2023-06-01T17:51:32;98521.63;;;24.30;36.40
23118;BME280;11728;50.624;6.014;2023-06-01T17:56:53;98522.81;;;24.26;36.54
23118;BME280;11728;50.624;6.014;2023-06-01T18:02:13;98529.97;;;24.15;37.06
23118;BME280;11728;50.624;6.014;2023-06-01T18:07:34;98515.97;;;23.98;37.20
23118;BME280;11728;50.624;6.014;2023-06-01T18:12:55;98513.66;;;23.81;37.59
23118;BME280;11728;50.624;6.014;2023-06-01T18:18:15;98514.50;;;23.69;37.70
23118;BME280;11728;50.624;6.014;2023-06-01T18:23:36;98520.31;;;23.63;37.88
23118;BME280;11728;50.624;6.014;2023-06-01T18:28:57;98511.28;;;23.64;38.46
23118;BME280;11728;50.624;6.014;2023-06-01T18:34:19;98514.72;;;23.53;39.01
23118;BME280;11728;50.624;6.014;2023-06-01T18:39:39;98525.06;;;23.34;39.55
23118;BME280;11728;50.624;6.014;2023-06-01T18:45:00;98505.63;;;23.05;39.52
23118;BME280;11728;50.624;6.014;2023-06-01T18:50:23;98509.66;;;22.73;39.94
23118;BME280;11728;50.624;6.014;2023-06-01T18:55:44;98509.56;;;22.48;40.35
23118;BME280;11728;50.624;6.014;2023-06-01T19:01:08;98517.09;;;22.29;40.51
23118;BME280;11728;50.624;6.014;2023-06-01T19:06:32;98520.50;;;22.05;41.00
23118;BME280;11728;50.624;6.014;2023-06-01T19:11:53;98520.47;;;21.78;41.97
23118;BME280;11728;50.624;6.014;2023-06-01T19:17:14;98524.06;;;21.50;43.62
23118;BME280;11728;50.624;6.014;2023-06-01T19:22:36;98531.13;;;21.09;45.97
23118;BME280;11728;50.624;6.014;2023-06-01T19:27:58;98539.41;;;20.77;47.76
23118;BME280;11728;50.624;6.014;2023-06-01T19:33:19;98544.88;;;20.44;48.70
23118;BME280;11728;50.624;6.014;2023-06-01T19:38:41;98557.28;;;20.16;49.99
23118;BME280;11728;50.624;6.014;2023-06-01T19:44:02;98556.00;;;19.91;51.13
23118;BME280;11728;50.624;6.014;2023-06-01T19:49:23;98553.56;;;19.71;51.67
23118;BME280;11728;50.624;6.014;2023-06-01T19:54:44;98554.44;;;19.71;53.52
23118;BME280;11728;50.624;6.014;2023-06-01T20:00:05;98572.00;;;19.77;53.88
23118;BME280;11728;50.624;6.014;2023-06-01T20:05:28;98584.59;;;19.75;54.14
23118;BME280;11728;50.624;6.014;2023-06-01T20:10:48;98584.34;;;19.64;54.13
23118;BME280;11728;50.624;6.014;2023-06-01T20:16:10;98587.59;;;19.53;53.63
23118;BME280;11728;50.624;6.014;2023-06-01T20:21:34;98592.50;;;19.12;54.44
23118;BME280;11728;50.624;6.014;2023-06-01T20:27:00;98598.06;;;19.07;55.40
23118;BME280;11728;50.624;6.014;2023-06-01T20:32:24;98600.81;;;18.89;55.02
23118;BME280;11728;50.624;6.014;2023-06-01T20:37:46;98605.00;;;18.42;55.72
23118;BME280;11728;50.624;6.014;2023-06-01T20:43:15;98609.38;;;18.06;56.16
23118;BME280;11728;50.624;6.014;2023-06-01T20:54:07;98623.94;;;17.63;56.68
23118;BME280;11728;50.624;6.014;2023-06-01T20:59:30;98618.72;;;17.41;57.03
23118;BME280;11728;50.624;6.014;2023-06-01T21:04:51;98621.50;;;17.18;57.75
23118;BME280;11728;50.624;6.014;2023-06-01T21:10:12;98622.16;;;17.03;58.29
23118;BME280;11728;50.624;6.014;2023-06-01T21:15:33;98632.47;;;16.91;58.72
23118;BME280;11728;50.624;6.014;2023-06-01T21:20:54;98627.78;;;16.76;58.95
23118;BME280;11728;50.624;6.014;2023-06-01T21:26:15;98633.00;;;16.58;59.38
23118;BME280;11728;50.624;6.014;2023-06-01T21:31:36;98629.38;;;16.39;59.45
23118;BME280;11728;50.624;6.014;2023-06-01T21:36:57;98626.22;;;16.28;59.48
23118;BME280;11728;50.624;6.014;2023-06-01T21:42:18;98631.78;;;16.22;59.11
23118;BME280;11728;50.624;6.014;2023-06-01T21:47:39;98637.53;;;16.12;59.52
23118;BME280;11728;50.624;6.014;2023-06-01T21:53:00;98646.78;;;16.03;59.75
23118;BME280;11728;50.624;6.014;2023-06-01T21:58:22;98639.22;;;15.91;60.09
23118;BME280;11728;50.624;6.014;2023-06-01T22:03:46;98646.66;;;15.83;60.34
23118;BME280;11728;50.624;6.014;2023-06-01T22:09:06;98642.47;;;15.76;60.59
23118;BME280;11728;50.624;6.014;2023-06-01T22:14:27;98645.28;;;15.73;60.56
23118;BME280;11728;50.624;6.014;2023-06-01T22:19:48;98642.81;;;15.67;60.80
23118;BME280;11728;50.624;6.014;2023-06-01T22:25:09;98637.72;;;15.61;60.87
23118;BME280;11728;50.624;6.014;2023-06-01T22:30:30;98648.50;;;15.58;61.24
23118;BME280;11728;50.624;6.014;2023-06-01T22:35:51;98639.53;;;15.61;61.38
23118;BME280;11728;50.624;6.014;2023-06-01T22:41:11;98648.84;;;15.72;61.23
23118;BME280;11728;50.624;6.014;2023-06-01T22:46:32;98646.41;;;15.89;60.99
23118;BME280;11728;50.624;6.014;2023-06-01T22:51:54;98646.78;;;16.03;60.85
23118;BME280;11728;50.624;6.014;2023-06-01T22:57:19;98651.38;;;15.98;60.64
23118;BME280;11728;50.624;6.014;2023-06-01T23:02:40;98648.28;;;15.87;61.00
23118;BME280;11728;50.624;6.014;2023-06-01T23:08:01;98651.88;;;15.86;61.03
23118;BME280;11728;50.624;6.014;2023-06-01T23:13:31;98655.56;;;15.82;61.11
23118;BME280;11728;50.624;6.014;2023-06-01T23:18:55;98658.22;;;15.82;61.23
23118;BME280;11728;50.624;6.014;2023-06-01T23:24:17;98661.94;;;15.78;61.51
23118;BME280;11728;50.624;6.014;2023-06-01T23:29:37;98657.59;;;15.76;61.51
23118;BME280;11728;50.624;6.014;2023-06-01T23:34:58;98647.97;;;15.72;61.56
23118;BME280;11728;50.624;6.014;2023-06-01T23:40:19;98653.28;;;15.72;61.40
23118;BME280;11728;50.624;6.014;2023-06-01T23:45:40;98658.00;;;15.65;61.63
23118;BME280;11728;50.624;6.014;2023-06-01T23:51:01;98663.66;;;15.56;61.60
23118;BME280;11728;50.624;6.014;2023-06-01T23:56:21;98665.44;;;15.32;61.81
